Time;durP1;ratioP1;P1;durP2;ratioP2;P2;SDS_P1;SDS_P2;PMS_P1;PMS_P2;Temp;Humidity;BMP_temperature;BMP_pressure;BME280_temperature;BME280_humidity;BME280_pressure;Samples;Min_cycle;Max_cycle;Signal;HPM_P1;HPM_P2
2022/03/08 00:02:10;;;;;;;14.73;9.55;;;;;;;;;;4994259;28;20022;-82
2022/03/08 00:04:36;;;;;;;14.35;10.75;;;;;;;;;;5011594;28;20428;-80
2022/03/08 00:07:05;;;;;;;15.60;10.82;;;;;;;;;;5012596;28;20037;-80
2022/03/08 00:09:55;;;;;;;15.30;10.60;;;;;;;;;;5011485;28;20452;-82
2022/03/08 00:12:22;;;;;;;15.43;11.02;;;;;;;;;;4993575;28;20141;-80
2022/03/08 00:14:48;;;;;;;15.25;10.93;;;;;;;;;;4994257;28;20455;-79
2022/03/08 00:17:14;;;;;;;15.57;10.55;;;;;;;;;;5009000;28;20022;-81
2022/03/08 00:19:40;;;;;;;15.73;10.73;;;;;;;;;;4994081;28;20026;-78
2022/03/08 00:22:06;;;;;;;15.82;11.15;;;;;;;;;;5011691;28;20018;-79
2022/03/08 00:24:35;;;;;;;12.98;9.68;;;;;;;;;;4994013;28;20052;-85
2022/03/08 00:27:01;;;;;;;16.13;11.20;;;;;;;;;;5011434;28;20025;-80
2022/03/08 00:29:27;;;;;;;15.88;10.10;;;;;;;;;;4993532;28;20038;-79
2022/03/08 00:31:54;;;;;;;18.30;12.38;;;;;;;;;;5011469;28;20025;-83
2022/03/08 00:34:20;;;;;;;15.60;12.13;;;;;;;;;;4993986;28;20029;-81
2022/03/08 00:36:47;;;;;;;17.23;11.40;;;;;;;;;;4994145;28;20054;-82
2022/03/08 00:39:13;;;;;;;15.95;11.25;;;;;;;;;;4996323;28;20473;-82
2022/03/08 00:41:40;;;;;;;15.90;11.55;;;;;;;;;;4997821;28;20481;-80
2022/03/08 00:44:07;;;;;;;13.32;9.40;;;;;;;;;;4997433;28;20022;-79
2022/03/08 00:46:33;;;;;;;15.38;11.35;;;;;;;;;;5014772;28;20543;-80
2022/03/08 00:48:59;;;;;;;17.00;12.00;;;;;;;;;;5014946;28;20105;-77
2022/03/08 00:51:25;;;;;;;17.70;11.38;;;;;;;;;;4997123;28;20032;-78
2022/03/08 00:53:52;;;;;;;13.80;9.73;;;;;;;;;;5014906;28;20427;-79
2022/03/08 00:56:18;;;;;;;16.90;11.32;;;;;;;;;;5012161;28;20378;-79
2022/03/08 00:58:44;;;;;;;16.92;11.63;;;;;;;;;;5014591;28;20022;-81
2022/03/08 01:01:10;;;;;;;17.67;11.82;;;;;;;;;;5014717;28;20080;-80
2022/03/08 01:03:36;;;;;;;16.23;12.15;;;;;;;;;;5014468;28;20026;-78
2022/03/08 01:06:02;;;;;;;15.32;11.13;;;;;;;;;;4997314;28;20030;-79
2022/03/08 01:08:29;;;;;;;15.55;11.27;;;;;;;;;;5014685;28;20116;-80
2022/03/08 01:10:55;;;;;;;16.63;10.57;;;;;;;;;;5014499;28;20018;-79
2022/03/08 01:13:24;;;;;;;15.65;11.07;;;;;;;;;;5014704;28;20025;-80
2022/03/08 01:15:51;;;;;;;16.55;10.77;;;;;;;;;;5013997;28;20042;-80
2022/03/08 01:18:19;;;;;;;16.15;11.45;;;;;;;;;;5012265;28;20073;-79
2022/03/08 01:20:45;;;;;;;16.05;11.57;;;;;;;;;;4996601;28;20092;-81
2022/03/08 01:23:11;;;;;;;17.33;11.02;;;;;;;;;;5014476;28;20361;-82
2022/03/08 01:25:40;;;;;;;16.75;12.00;;;;;;;;;;5014326;28;20133;-80
2022/03/08 01:28:06;;;;;;;16.42;12.07;;;;;;;;;;5014156;28;20021;-80
2022/03/08 01:30:34;;;;;;;18.25;12.43;;;;;;;;;;5014067;28;20026;-81
2022/03/08 01:33:00;;;;;;;16.27;10.57;;;;;;;;;;4994069;28;20109;-81
2022/03/08 01:35:26;;;;;;;15.02;11.27;;;;;;;;;;5014248;28;20053;-81
2022/03/08 01:37:53;;;;;;;14.52;9.07;;;;;;;;;;5014060;28;20026;-82
2022/03/08 01:40:20;;;;;;;16.33;11.95;;;;;;;;;;5013985;28;20029;-80
2022/03/08 01:42:48;;;;;;;16.90;12.40;;;;;;;;;;5014171;28;20100;-79
2022/03/08 01:45:18;;;;;;;16.38;11.02;;;;;;;;;;5014048;28;20018;-79
2022/03/08 01:47:44;;;;;;;17.90;12.20;;;;;;;;;;5014327;28;20065;-81
2022/03/08 01:50:11;;;;;;;16.63;11.43;;;;;;;;;;5014078;28;20355;-80
2022/03/08 01:52:38;;;;;;;16.75;11.30;;;;;;;;;;5014608;28;20477;-81
2022/03/08 01:55:04;;;;;;;17.15;12.00;;;;;;;;;;4997151;28;20388;-79
2022/03/08 01:57:30;;;;;;;18.75;11.75;;;;;;;;;;5014590;28;20057;-84
2022/03/08 01:59:57;;;;;;;17.42;12.07;;;;;;;;;;4996159;28;20033;-78
2022/03/08 02:02:23;;;;;;;14.50;10.50;;;;;;;;;;5010543;28;20550;-81
2022/03/08 02:04:50;;;;;;;16.75;11.90;;;;;;;;;;5007856;28;20021;-81
2022/03/08 02:07:16;;;;;;;17.67;12.38;;;;;;;;;;5009700;28;20477;-80
2022/03/08 02:09:42;;;;;;;17.55;12.43;;;;;;;;;;5010338;28;20030;-79
2022/03/08 02:12:09;;;;;;;16.90;10.60;;;;;;;;;;5010764;28;20026;-79
2022/03/08 02:14:35;;;;;;;16.67;10.95;;;;;;;;;;5014104;28;20056;-80
2022/03/08 02:17:03;;;;;;;15.95;11.43;;;;;;;;;;5013910;28;20036;-81
2022/03/08 02:19:48;;;;;;;19.20;12.75;;;;;;;;;;4998069;28;20023;-81
2022/03/08 02:22:14;;;;;;;16.60;12.15;;;;;;;;;;5014117;28;20037;-79
2022/03/08 02:24:40;;;;;;;20.92;13.80;;;;;;;;;;4996256;28;20026;-79
2022/03/08 02:27:07;;;;;;;19.45;13.45;;;;;;;;;;5014040;28;20025;-82
2022/03/08 02:29:33;;;;;;;16.00;11.05;;;;;;;;;;5013776;28;20536;-79
2022/03/08 02:31:59;;;;;;;18.38;12.30;;;;;;;;;;5013966;28;20069;-84
2022/03/08 02:34:26;;;;;;;19.98;12.98;;;;;;;;;;5013944;28;20053;-79
2022/03/08 02:37:04;;;;;;;16.65;11.23;;;;;;;;;;4996134;28;20029;-78
2022/03/08 02:39:31;;;;;;;19.40;13.65;;;;;;;;;;5013666;28;20080;-81
2022/03/08 02:41:57;;;;;;;20.83;14.13;;;;;;;;;;5013989;28;20030;-79
2022/03/08 02:44:24;;;;;;;20.08;13.57;;;;;;;;;;5013593;28;20026;-79
2022/03/08 02:46:51;;;;;;;18.88;12.95;;;;;;;;;;5013739;28;20018;-79
2022/03/08 02:49:17;;;;;;;19.73;13.05;;;;;;;;;;5013468;28;20508;-86
2022/03/08 02:51:43;;;;;;;20.77;13.77;;;;;;;;;;5013398;28;20105;-78
2022/03/08 02:54:09;;;;;;;20.38;14.07;;;;;;;;;;5013452;28;20018;-79
2022/03/08 02:56:35;;;;;;;18.23;13.18;;;;;;;;;;5013223;28;20520;-77
2022/03/08 02:59:02;;;;;;;18.80;13.38;;;;;;;;;;5013474;28;20022;-79
2022/03/08 03:01:28;;;;;;;24.60;15.88;;;;;;;;;;5012580;28;20068;-79
2022/03/08 03:03:54;;;;;;;20.75;13.75;;;;;;;;;;5013323;28;20076;-80
2022/03/08 03:06:20;;;;;;;16.05;11.20;;;;;;;;;;5013285;28;20026;-80
2022/03/08 03:08:46;;;;;;;20.08;13.63;;;;;;;;;;4995611;28;20390;-80
2022/03/08 03:11:12;;;;;;;18.20;12.25;;;;;;;;;;5013155;28;20054;-82
2022/03/08 03:13:38;;;;;;;19.17;12.88;;;;;;;;;;5013014;28;20022;-80
2022/03/08 03:16:04;;;;;;;17.75;12.32;;;;;;;;;;5012974;28;20052;-82
2022/03/08 03:18:31;;;;;;;18.85;13.30;;;;;;;;;;5002948;28;20427;-79
2022/03/08 03:20:57;;;;;;;19.83;13.10;;;;;;;;;;5007086;28;20026;-83
2022/03/08 03:23:23;;;;;;;18.65;12.45;;;;;;;;;;5013002;28;20499;-80
2022/03/08 03:25:49;;;;;;;21.27;13.43;;;;;;;;;;4995140;28;20592;-80
2022/03/08 03:28:15;;;;;;;19.73;12.80;;;;;;;;;;5012867;28;20037;-80
2022/03/08 03:30:41;;;;;;;20.23;12.20;;;;;;;;;;5004650;28;20022;-82
2022/03/08 03:33:07;;;;;;;18.50;13.18;;;;;;;;;;4995473;28;20060;-82
2022/03/08 03:35:33;;;;;;;16.67;10.75;;;;;;;;;;5012990;28;20022;-80
2022/03/08 03:38:00;;;;;;;19.40;11.85;;;;;;;;;;5012707;28;20026;-84
2022/03/08 03:40:26;;;;;;;18.02;11.52;;;;;;;;;;5012529;28;20046;-78
2022/03/08 03:42:52;;;;;;;20.30;12.70;;;;;;;;;;4994779;28;20080;-79
2022/03/08 03:45:18;;;;;;;21.02;13.27;;;;;;;;;;5012957;28;20382;-83
2022/03/08 03:47:44;;;;;;;22.67;13.82;;;;;;;;;;5013245;28;20428;-85
2022/03/08 03:50:11;;;;;;;19.55;12.32;;;;;;;;;;5012925;28;20033;-80
2022/03/08 03:52:37;;;;;;;20.52;13.15;;;;;;;;;;5012678;28;20473;-78
2022/03/08 03:55:05;;;;;;;19.85;13.05;;;;;;;;;;5012466;28;20117;-80
2022/03/08 03:57:31;;;;;;;19.48;13.23;;;;;;;;;;5012519;28;20022;-79
2022/03/08 03:59:57;;;;;;;19.90;13.05;;;;;;;;;;5012431;28;20030;-80
2022/03/08 04:02:23;;;;;;;19.10;11.85;;;;;;;;;;5012623;28;20025;-81
2022/03/08 04:04:49;;;;;;;18.67;11.18;;;;;;;;;;5012647;28;20018;-79
2022/03/08 04:07:15;;;;;;;22.50;13.88;;;;;;;;;;5012544;28;20022;-80
2022/03/08 04:09:42;;;;;;;24.52;15.55;;;;;;;;;;5012424;28;20088;-80
2022/03/08 04:12:08;;;;;;;22.52;15.00;;;;;;;;;;5012116;28;20497;-81
2022/03/08 04:14:35;;;;;;;22.73;14.02;;;;;;;;;;4998668;28;20571;-83
2022/03/08 04:17:02;;;;;;;20.42;12.45;;;;;;;;;;4998731;28;20021;-80
2022/03/08 04:19:28;;;;;;;20.42;12.65;;;;;;;;;;5016485;28;20022;-80
2022/03/08 04:21:55;;;;;;;21.27;13.02;;;;;;;;;;5016183;28;20068;-83
2022/03/08 04:24:21;;;;;;;19.55;12.38;;;;;;;;;;4998295;28;20034;-81
2022/03/08 04:26:47;;;;;;;18.30;12.20;;;;;;;;;;5016258;28;20064;-80
2022/03/08 04:29:13;;;;;;;19.70;11.77;;;;;;;;;;5015886;28;20109;-82
2022/03/08 04:31:39;;;;;;;19.08;11.82;;;;;;;;;;5016188;28;20064;-81
2022/03/08 04:34:05;;;;;;;20.92;13.23;;;;;;;;;;5015902;28;20049;-81
2022/03/08 04:36:31;;;;;;;20.33;13.27;;;;;;;;;;5016138;28;20088;-79
2022/03/08 04:38:58;;;;;;;20.63;13.07;;;;;;;;;;5016007;28;20030;-84
2022/03/08 04:41:24;;;;;;;20.40;12.95;;;;;;;;;;4998211;28;20131;-83
2022/03/08 04:43:50;;;;;;;21.52;12.50;;;;;;;;;;5015959;28;20469;-79
2022/03/08 04:46:16;;;;;;;21.17;13.48;;;;;;;;;;5015857;28;20037;-81
2022/03/08 04:48:42;;;;;;;20.25;12.85;;;;;;;;;;5015776;28;20045;-81
2022/03/08 04:51:20;;;;;;;20.35;13.85;;;;;;;;;;5015606;28;20076;-81
2022/03/08 04:53:46;;;;;;;20.63;14.00;;;;;;;;;;4998312;28;20057;-80
2022/03/08 04:56:12;;;;;;;21.05;13.45;;;;;;;;;;5015610;28;20022;-82
2022/03/08 04:58:38;;;;;;;21.75;14.73;;;;;;;;;;5015798;28;20029;-82
2022/03/08 05:01:04;;;;;;;22.95;14.23;;;;;;;;;;5015417;28;20026;-80
2022/03/08 05:03:31;;;;;;;21.75;13.77;;;;;;;;;;5015576;28;20033;-81
2022/03/08 05:05:57;;;;;;;22.67;15.02;;;;;;;;;;5015696;28;20022;-82
2022/03/08 05:08:23;;;;;;;17.80;12.43;;;;;;;;;;4997820;28;20034;-82
2022/03/08 05:10:51;;;;;;;19.52;13.15;;;;;;;;;;5017466;28;20452;-84
2022/03/08 05:13:17;;;;;;;17.05;11.90;;;;;;;;;;4997470;28;20103;-82
2022/03/08 05:15:47;;;;;;;19.55;12.95;;;;;;;;;;5015445;28;20498;-84
2022/03/08 05:18:13;;;;;;;18.77;12.40;;;;;;;;;;4997165;28;20424;-83
2022/03/08 05:20:39;;;;;;;20.33;10.48;;;;;;;;;;5016096;28;20026;-81
2022/03/08 05:23:05;;;;;;;19.58;12.68;;;;;;;;;;4997819;28;20477;-79
2022/03/08 05:25:31;;;;;;;20.23;12.93;;;;;;;;;;4996471;28;20178;-77
2022/03/08 05:27:57;;;;;;;19.75;13.60;;;;;;;;;;5015396;28;20033;-79
2022/03/08 05:30:23;;;;;;;25.00;16.33;;;;;;;;;;5014957;28;20025;-78
2022/03/08 05:32:49;;;;;;;21.65;14.23;;;;;;;;;;4997223;28;20018;-78
2022/03/08 05:35:16;;;;;;;21.02;13.88;;;;;;;;;;5014635;28;20030;-79
2022/03/08 05:37:42;;;;;;;20.92;13.18;;;;;;;;;;5014636;28;20064;-78
2022/03/08 05:40:09;;;;;;;24.27;13.95;;;;;;;;;;5014331;28;20107;-81
2022/03/08 05:42:38;;;;;;;20.08;13.02;;;;;;;;;;4996850;28;20049;-78
2022/03/08 05:45:04;;;;;;;23.10;14.55;;;;;;;;;;5014459;28;20448;-77
2022/03/08 05:47:30;;;;;;;18.92;13.38;;;;;;;;;;4996745;28;20362;-79
2022/03/08 05:49:57;;;;;;;23.17;13.57;;;;;;;;;;5014593;28;20022;-80
2022/03/08 05:52:23;;;;;;;20.02;12.82;;;;;;;;;;5014221;28;20029;-78
2022/03/08 05:54:49;;;;;;;21.23;15.05;;;;;;;;;;5014374;28;20100;-79
2022/03/08 05:57:15;;;;;;;18.10;11.77;;;;;;;;;;5014100;28;20029;-77
2022/03/08 05:59:41;;;;;;;24.98;14.15;;;;;;;;;;4996784;28;20088;-81
2022/03/08 06:02:07;;;;;;;21.25;14.10;;;;;;;;;;5014160;28;20045;-81
2022/03/08 06:04:33;;;;;;;23.00;14.90;;;;;;;;;;5014268;28;20489;-78
2022/03/08 06:06:59;;;;;;;22.13;15.65;;;;;;;;;;5014010;28;20030;-78
2022/03/08 06:09:25;;;;;;;19.73;13.20;;;;;;;;;;5008660;28;20037;-78
2022/03/08 06:11:52;;;;;;;19.20;13.07;;;;;;;;;;4995522;28;20026;-79
2022/03/08 06:14:18;;;;;;;17.70;11.80;;;;;;;;;;4993671;28;20037;-78
2022/03/08 06:16:44;;;;;;;27.50;15.10;;;;;;;;;;4994449;28;20034;-80
2022/03/08 06:19:10;;;;;;;26.02;16.10;;;;;;;;;;4976777;28;20026;-81
2022/03/08 06:21:36;;;;;;;28.70;16.20;;;;;;;;;;4976718;28;20026;-80
2022/03/08 06:24:02;;;;;;;26.13;16.55;;;;;;;;;;4994507;28;20074;-80
2022/03/08 06:26:29;;;;;;;22.63;14.98;;;;;;;;;;4994044;28;20533;-81
2022/03/08 06:28:55;;;;;;;23.67;15.18;;;;;;;;;;4993793;28;20038;-79
2022/03/08 06:31:21;;;;;;;20.77;15.45;;;;;;;;;;4995834;28;20038;-79
2022/03/08 06:33:50;;;;;;;21.23;14.10;;;;;;;;;;5012210;28;20026;-85
2022/03/08 06:36:22;;;;;;;22.02;14.57;;;;;;;;;;5009679;28;20026;-85
2022/03/08 06:38:55;;;;;;;23.65;16.38;;;;;;;;;;4999763;28;20037;-83
2022/03/08 06:41:24;;;;;;;22.70;13.68;;;;;;;;;;4998445;28;20029;-82
2022/03/08 06:43:51;;;;;;;27.30;15.45;;;;;;;;;;5016980;28;20552;-82
2022/03/08 06:46:19;;;;;;;22.50;14.85;;;;;;;;;;5032299;28;20072;-83
2022/03/08 06:49:01;;;;;;;;;;;;;;;;;;;;;
2022/03/08 06:51:35;;;;;;;23.13;13.77;;;;;;;;;;5031254;28;20498;-84
2022/03/08 06:54:10;;;;;;;21.50;13.93;;;;;;;;;;5032482;28;20025;-85
2022/03/08 06:56:45;;;;;;;25.85;16.73;;;;;;;;;;5015018;28;20052;-84
2022/03/08 06:59:48;;;;;;;27.42;16.33;;;;;;;;;;5002502;28;20109;-85
2022/03/08 07:02:25;;;;;;;24.00;16.58;;;;;;;;;;4952080;28;20047;-86
2022/03/08 07:05:09;;;;;;;21.77;13.77;;;;;;;;;;4951837;29;20037;-83
2022/03/08 07:07:38;;;;;;;21.50;13.13;;;;;;;;;;4987268;28;20088;-82
2022/03/08 07:10:05;;;;;;;21.30;14.85;;;;;;;;;;4992615;28;20097;-83
2022/03/08 07:12:31;;;;;;;21.80;15.05;;;;;;;;;;4990673;28;20551;-82
2022/03/08 07:15:00;;;;;;;20.67;14.40;;;;;;;;;;4992769;28;20085;-85
2022/03/08 07:17:26;;;;;;;23.75;14.80;;;;;;;;;;4993167;28;20029;-83
2022/03/08 07:19:55;;;;;;;22.20;13.82;;;;;;;;;;4974688;28;20026;-80
2022/03/08 07:22:21;;;;;;;22.20;16.02;;;;;;;;;;4991524;28;20110;-78
2022/03/08 07:24:49;;;;;;;23.17;15.68;;;;;;;;;;4992128;28;20101;-84
2022/03/08 07:27:35;;;;;;;22.67;15.45;;;;;;;;;;4974827;28;20042;-85
2022/03/08 07:30:10;;;;;;;22.08;14.90;;;;;;;;;;4975734;28;20509;-81
2022/03/08 07:32:52;;;;;;;;;;;;;;;;;;;;;
2022/03/08 07:35:44;;;;;;;21.73;14.80;;;;;;;;;;5031534;28;20376;-84
2022/03/08 07:38:15;;;;;;;19.10;12.65;;;;;;;;;;5016162;28;20034;-82
2022/03/08 07:40:41;;;;;;;22.17;14.32;;;;;;;;;;4993926;28;20022;-82
2022/03/08 07:43:07;;;;;;;22.80;14.95;;;;;;;;;;5011750;28;20064;-84
2022/03/08 07:45:36;;;;;;;22.52;14.38;;;;;;;;;;5009755;28;20018;-82
2022/03/08 07:48:04;;;;;;;24.85;16.90;;;;;;;;;;5013688;28;20133;-82
2022/03/08 07:50:36;;;;;;;23.25;15.52;;;;;;;;;;5023645;28;20094;-82
2022/03/08 07:53:05;;;;;;;24.55;15.82;;;;;;;;;;5011150;28;20022;-84
2022/03/08 07:55:31;;;;;;;25.60;17.23;;;;;;;;;;5011252;28;20481;-80
2022/03/08 07:57:58;;;;;;;19.33;13.27;;;;;;;;;;5009599;28;20034;-79
2022/03/08 08:00:27;;;;;;;22.45;15.80;;;;;;;;;;5011455;28;20108;-80
2022/03/08 08:02:53;;;;;;;23.08;14.82;;;;;;;;;;5011878;28;20038;-82
2022/03/08 08:05:20;;;;;;;21.98;15.05;;;;;;;;;;5003237;28;20105;-80
2022/03/08 08:07:49;;;;;;;25.67;16.00;;;;;;;;;;4991622;28;20023;-86
2022/03/08 08:10:26;;;;;;;28.95;18.58;;;;;;;;;;4988026;28;20038;-83
2022/03/08 08:12:59;;;;;;;24.88;17.67;;;;;;;;;;5008826;28;20032;-83
2022/03/08 08:15:39;;;;;;;;;;;;;;;;;;;;;
2022/03/08 08:18:24;;;;;;;;;;;;;;;;;;;;;
2022/03/08 08:20:52;;;;;;;27.17;18.45;;;;;;;;;;5009330;28;20469;-83
2022/03/08 08:23:19;;;;;;;23.55;16.90;;;;;;;;;;4992704;28;20026;-80
2022/03/08 08:25:45;;;;;;;24.30;16.38;;;;;;;;;;5010407;28;20026;-80
2022/03/08 08:28:11;;;;;;;25.30;16.77;;;;;;;;;;5011220;28;20030;-77
2022/03/08 08:30:37;;;;;;;27.08;17.65;;;;;;;;;;5010725;28;20044;-79
2022/03/08 08:33:03;;;;;;;24.02;16.67;;;;;;;;;;5018614;28;20029;-80
2022/03/08 08:35:30;;;;;;;28.98;19.05;;;;;;;;;;5012077;28;20141;-78
2022/03/08 08:37:56;;;;;;;25.40;17.55;;;;;;;;;;5010935;28;20057;-78
2022/03/08 08:40:23;;;;;;;24.80;15.93;;;;;;;;;;5009089;28;20041;-80
2022/03/08 08:42:49;;;;;;;25.05;17.65;;;;;;;;;;4992918;28;20122;-80
2022/03/08 08:45:15;;;;;;;26.38;16.55;;;;;;;;;;4993437;28;20124;-80
2022/03/08 08:47:41;;;;;;;23.95;16.30;;;;;;;;;;5011351;28;20118;-80
2022/03/08 08:50:08;;;;;;;22.58;15.23;;;;;;;;;;5010954;28;20041;-81
2022/03/08 08:52:34;;;;;;;23.13;14.95;;;;;;;;;;5010806;28;20390;-79
2022/03/08 08:55:00;;;;;;;24.33;15.48;;;;;;;;;;5003042;28;20034;-80
2022/03/08 08:57:26;;;;;;;30.60;19.30;;;;;;;;;;4991361;28;20026;-83
2022/03/08 08:59:52;;;;;;;25.33;16.50;;;;;;;;;;4991805;28;20030;-79
2022/03/08 09:02:18;;;;;;;25.15;18.40;;;;;;;;;;4994686;28;20355;-80
2022/03/08 09:04:44;;;;;;;23.63;15.75;;;;;;;;;;4994289;28;20050;-79
2022/03/08 09:07:10;;;;;;;22.17;14.30;;;;;;;;;;4994552;28;20074;-78
2022/03/08 09:09:37;;;;;;;23.00;14.80;;;;;;;;;;4982335;28;20137;-75
2022/03/08 09:12:03;;;;;;;24.77;14.68;;;;;;;;;;4998346;28;20030;-79
2022/03/08 09:14:32;;;;;;;28.08;17.52;;;;;;;;;;4994182;28;20061;-79
2022/03/08 09:16:58;;;;;;;27.17;17.88;;;;;;;;;;5009515;28;20489;-79
2022/03/08 09:19:24;;;;;;;26.38;18.42;;;;;;;;;;5033081;28;20021;-82
2022/03/08 09:21:50;;;;;;;23.02;16.08;;;;;;;;;;5034038;28;20029;-81
2022/03/08 09:24:16;;;;;;;23.70;16.90;;;;;;;;;;5016434;28;20481;-81
2022/03/08 09:26:43;;;;;;;28.17;18.92;;;;;;;;;;5034212;28;20029;-80
2022/03/08 09:29:09;;;;;;;27.92;19.77;;;;;;;;;;5025328;28;20041;-83
2022/03/08 09:31:35;;;;;;;19.63;14.38;;;;;;;;;;4995256;28;20022;-83
2022/03/08 09:52:28;;;;;;;24.95;17.65;;;;;;;;;;5070486;28;20419;-83
2022/03/08 09:54:54;;;;;;;29.33;19.75;;;;;;;;;;5068053;28;20039;-83
2022/03/08 09:57:22;;;;;;;23.42;16.50;;;;;;;;;;5067807;28;20029;-88
2022/03/08 09:59:49;;;;;;;30.17;19.63;;;;;;;;;;5068039;28;20040;-84
2022/03/08 10:02:15;;;;;;;24.27;17.17;;;;;;;;;;5067240;28;20025;-80
2022/03/08 10:04:41;;;;;;;25.52;17.85;;;;;;;;;;5062287;28;20029;-82
2022/03/08 10:07:08;;;;;;;28.08;18.90;;;;;;;;;;5067442;28;20443;-82
2022/03/08 10:09:34;;;;;;;24.80;16.67;;;;;;;;;;5063986;28;20028;-81
2022/03/08 10:12:01;;;;;;;19.38;13.75;;;;;;;;;;5068035;28;20484;-87
2022/03/08 10:14:35;;;;;;;22.90;16.70;;;;;;;;;;5065864;28;20112;-80
2022/03/08 10:17:02;;;;;;;23.13;15.18;;;;;;;;;;5048856;28;20033;-81
2022/03/08 10:19:28;;;;;;;22.48;15.15;;;;;;;;;;5062444;28;20055;-82
2022/03/08 10:21:57;;;;;;;19.80;13.95;;;;;;;;;;5064021;28;20479;-83
2022/03/08 10:24:28;;;;;;;23.23;15.95;;;;;;;;;;5066372;28;20021;-78
2022/03/08 10:26:56;;;;;;;20.50;14.65;;;;;;;;;;5066893;28;20033;-83
2022/03/08 10:29:29;;;;;;;22.27;15.52;;;;;;;;;;5065125;28;20033;-80
2022/03/08 10:32:08;;;;;;;25.65;15.40;;;;;;;;;;5066770;28;20075;-83
2022/03/08 10:34:36;;;;;;;26.25;19.30;;;;;;;;;;5068056;28;20040;-82
2022/03/08 10:37:14;;;;;;;23.65;15.40;;;;;;;;;;5067501;28;20041;-82
2022/03/08 10:39:50;;;;;;;24.35;16.23;;;;;;;;;;5067629;28;20028;-79
2022/03/08 10:42:20;;;;;;;25.38;19.42;;;;;;;;;;5066232;28;20067;-87
2022/03/08 10:44:47;;;;;;;24.75;17.95;;;;;;;;;;5065815;28;20032;-83
2022/03/08 10:47:14;;;;;;;23.52;15.75;;;;;;;;;;5067398;28;20078;-85
2022/03/08 10:50:08;;;;;;;26.90;17.85;;;;;;;;;;5064916;28;20483;-79
2022/03/08 10:52:36;;;;;;;25.77;17.15;;;;;;;;;;5058067;28;20073;-80
2022/03/08 10:55:28;;;;;;;27.42;20.23;;;;;;;;;;5053020;28;20029;-83
2022/03/08 10:57:59;;;;;;;25.77;17.27;;;;;;;;;;5051085;28;20373;-84
2022/03/08 11:00:26;;;;;;;23.67;17.55;;;;;;;;;;5051102;28;20388;-82
2022/03/08 11:02:52;;;;;;;28.17;19.67;;;;;;;;;;5051992;28;20028;-82
2022/03/08 11:05:19;;;;;;;26.13;18.45;;;;;;;;;;5052916;28;20025;-82
2022/03/08 11:07:48;;;;;;;23.20;17.38;;;;;;;;;;5053514;28;20024;-84
2022/03/08 11:10:15;;;;;;;21.35;15.02;;;;;;;;;;5052082;28;20029;-81
2022/03/08 11:12:41;;;;;;;27.23;18.48;;;;;;;;;;5053421;28;20488;-82
2022/03/08 11:15:09;;;;;;;21.17;15.93;;;;;;;;;;5053627;28;20105;-84
2022/03/08 11:17:36;;;;;;;25.00;19.10;;;;;;;;;;5051946;28;20031;-83
2022/03/08 11:20:03;;;;;;;24.67;17.50;;;;;;;;;;5051746;28;20063;-87
2022/03/08 11:22:31;;;;;;;28.05;19.08;;;;;;;;;;5053346;28;20031;-82
2022/03/08 11:24:57;;;;;;;28.42;19.38;;;;;;;;;;5051570;28;20017;-82
2022/03/08 11:27:24;;;;;;;25.52;18.98;;;;;;;;;;5053510;28;20491;-87
2022/03/08 11:29:50;;;;;;;27.52;17.52;;;;;;;;;;5053828;28;20336;-84
2022/03/08 11:32:32;;;;;;;24.40;18.60;;;;;;;;;;5054172;28;20118;-80
2022/03/08 11:35:11;;;;;;;31.30;21.27;;;;;;;;;;5054357;28;20024;-82
2022/03/08 11:37:40;;;;;;;26.48;19.65;;;;;;;;;;5053745;28;20036;-86
2022/03/08 11:40:25;;;;;;;28.15;18.45;;;;;;;;;;5052704;28;20044;-81
2022/03/08 11:42:53;;;;;;;;;;;;;;;;;;5052778;28;20420;-80
2022/03/08 11:45:22;;;;;;;27.38;18.73;;;;;;;;;;5052387;28;19905;-80
2022/03/08 11:47:54;;;;;;;24.38;17.45;;;;;;;;;;5053981;28;20020;-78
2022/03/08 11:50:21;;;;;;;24.45;17.48;;;;;;;;;;5053678;28;20128;-81
2022/03/08 11:52:51;;;;;;;23.10;16.85;;;;;;;;;;5052378;28;20032;-82
2022/03/08 11:55:24;;;;;;;26.45;18.38;;;;;;;;;;5051401;28;20061;-82
2022/03/08 11:58:09;;;;;;;25.60;18.67;;;;;;;;;;5052513;28;20061;-83
2022/03/08 12:00:40;;;;;;;23.35;16.38;;;;;;;;;;5053712;28;20029;-82
2022/03/08 12:03:09;;;;;;;26.58;19.42;;;;;;;;;;5051581;28;20036;-81
2022/03/08 12:05:38;;;;;;;26.50;18.40;;;;;;;;;;5053048;28;20036;-81
2022/03/08 12:08:26;;;;;;;24.40;16.17;;;;;;;;;;5053142;28;20020;-85
2022/03/08 12:10:57;;;;;;;30.30;23.08;;;;;;;;;;5051666;28;20116;-79
2022/03/08 12:13:34;;;;;;;23.67;17.92;;;;;;;;;;5052761;28;20098;-82
2022/03/08 12:16:21;;;;;;;23.10;18.00;;;;;;;;;;5052710;28;20079;-77
2022/03/08 12:18:50;;;;;;;24.48;18.90;;;;;;;;;;5052721;28;20104;-80
2022/03/08 12:24:04;;;;;;;30.48;22.25;;;;;;;;;;5053021;28;20083;-81
2022/03/08 12:26:37;;;;;;;26.30;17.60;;;;;;;;;;5052715;28;20100;-77
2022/03/08 12:29:09;;;;;;;22.73;15.73;;;;;;;;;;5052824;28;20027;-82
2022/03/08 12:31:54;;;;;;;22.52;14.88;;;;;;;;;;5052853;28;20029;-83
2022/03/08 12:34:39;;;;;;;18.70;13.85;;;;;;;;;;5052587;28;20083;-81
2022/03/08 12:37:08;;;;;;;19.95;14.20;;;;;;;;;;5051455;28;20024;-79
2022/03/08 12:39:46;;;;;;;25.08;17.38;;;;;;;;;;5052323;28;20039;-80
2022/03/08 12:42:31;;;;;;;24.83;17.92;;;;;;;;;;5051932;28;20041;-78
2022/03/08 12:44:57;;;;;;;;;;;;;;;;;;5052358;28;20035;-76
2022/03/08 12:47:24;;;;;;;26.58;19.58;;;;;;;;;;5051316;28;20267;-76
2022/03/08 12:49:51;;;;;;;22.77;15.57;;;;;;;;;;5044110;28;20103;-80
2022/03/08 12:52:18;;;;;;;28.52;20.23;;;;;;;;;;5050250;28;20127;-77
2022/03/08 12:54:45;;;;;;;25.35;18.33;;;;;;;;;;5060049;28;20024;-78
2022/03/08 12:57:11;;;;;;;27.70;19.38;;;;;;;;;;5052440;28;20033;-84
2022/03/08 12:59:56;;;;;;;29.35;21.20;;;;;;;;;;5045613;28;20087;-80
2022/03/08 13:02:22;;;;;;;23.00;16.60;;;;;;;;;;5048960;28;20040;-78
2022/03/08 13:04:49;;;;;;;26.45;17.25;;;;;;;;;;5051393;28;20039;-81
2022/03/08 13:07:17;;;;;;;27.23;17.27;;;;;;;;;;5049398;28;20017;-75
2022/03/08 13:09:54;;;;;;;24.42;18.48;;;;;;;;;;5052362;28;20051;-85
2022/03/08 13:12:21;;;;;;;22.73;16.90;;;;;;;;;;5051599;28;20037;-80
2022/03/08 13:15:06;;;;;;;25.05;17.55;;;;;;;;;;5049994;28;20032;-77
2022/03/08 13:17:33;;;;;;;24.35;16.85;;;;;;;;;;5047738;28;20025;-80
2022/03/08 13:20:01;;;;;;;20.40;13.60;;;;;;;;;;5050918;28;20029;-82
2022/03/08 13:22:28;;;;;;;25.25;17.48;;;;;;;;;;5051007;28;20029;-77
2022/03/08 13:25:13;;;;;;;27.63;18.20;;;;;;;;;;5046904;28;20032;-85
2022/03/08 13:27:57;;;;;;;22.80;16.60;;;;;;;;;;5034498;28;20129;-75
2022/03/08 13:30:32;;;;;;;27.17;19.15;;;;;;;;;;5037098;28;20176;-80
2022/03/08 13:33:16;;;;;;;27.88;20.52;;;;;;;;;;5040310;28;20380;-79
2022/03/08 13:35:44;;;;;;;23.73;17.67;;;;;;;;;;5039271;28;20442;-79
2022/03/08 13:38:11;;;;;;;25.92;18.67;;;;;;;;;;5044048;28;20106;-80
2022/03/08 13:40:38;;;;;;;24.92;17.70;;;;;;;;;;5044380;28;20558;-79
2022/03/08 13:43:04;;;;;;;28.67;21.27;;;;;;;;;;5032369;28;20036;-78
2022/03/08 13:45:34;;;;;;;27.98;20.52;;;;;;;;;;5038790;28;20037;-80
2022/03/08 13:48:01;;;;;;;23.85;18.98;;;;;;;;;;5041171;28;20025;-84
2022/03/08 13:50:31;;;;;;;26.83;19.17;;;;;;;;;;5030256;28;20574;-78
2022/03/08 13:53:09;;;;;;;26.15;18.52;;;;;;;;;;5033429;28;20367;-78
2022/03/08 13:55:36;;;;;;;25.75;19.38;;;;;;;;;;5031274;28;20675;-84
2022/03/08 13:58:06;;;;;;;25.38;19.67;;;;;;;;;;5039765;28;20035;-79
2022/03/08 14:00:34;;;;;;;24.98;17.98;;;;;;;;;;5050238;28;20377;-80
2022/03/08 14:03:00;;;;;;;28.58;21.50;;;;;;;;;;5050291;28;20017;-80
2022/03/08 14:05:27;;;;;;;27.02;20.08;;;;;;;;;;5049984;28;20112;-83
2022/03/08 14:07:56;;;;;;;25.83;17.80;;;;;;;;;;5043245;28;20037;-78
2022/03/08 14:10:24;;;;;;;25.92;17.50;;;;;;;;;;5049681;28;20037;-80
2022/03/08 14:12:50;;;;;;;23.33;16.73;;;;;;;;;;5051278;28;20036;-77
2022/03/08 14:15:17;;;;;;;24.25;18.75;;;;;;;;;;5050648;28;20059;-76
2022/03/08 14:17:49;;;;;;;27.08;19.33;;;;;;;;;;5050188;28;20025;-83
2022/03/08 14:20:15;;;;;;;28.10;19.65;;;;;;;;;;5051297;28;20128;-81
2022/03/08 14:23:00;;;;;;;28.95;20.83;;;;;;;;;;5051535;28;20104;-80
2022/03/08 14:25:26;;;;;;;;;;;;;;;;;;5049497;28;20048;-81
2022/03/08 14:27:53;;;;;;;27.20;19.10;;;;;;;;;;5052083;28;19915;-79
2022/03/08 14:30:23;;;;;;;40.25;26.40;;;;;;;;;;5054386;28;20360;-77
2022/03/08 14:32:49;;;;;;;33.13;24.38;;;;;;;;;;5054701;28;20033;-78
2022/03/08 14:35:20;;;;;;;19.55;13.57;;;;;;;;;;5054438;28;20391;-82
2022/03/08 14:37:47;;;;;;;37.03;26.15;;;;;;;;;;5054880;28;20025;-77
2022/03/08 14:40:33;;;;;;;28.70;19.88;;;;;;;;;;5055044;28;20025;-80
2022/03/08 14:43:01;;;;;;;27.90;19.52;;;;;;;;;;5054576;28;20076;-75
2022/03/08 14:45:28;;;;;;;25.35;18.48;;;;;;;;;;5055209;28;20400;-77
2022/03/08 14:47:54;;;;;;;29.65;20.15;;;;;;;;;;5053978;28;20434;-75
2022/03/08 14:50:20;;;;;;;25.30;17.38;;;;;;;;;;5054566;28;20056;-77
2022/03/08 14:52:48;;;;;;;25.90;17.85;;;;;;;;;;5053679;28;20029;-78